sensor_id;sensor_type;location;lat;lon;timestamp;temperature;humidity
816;DHT22;25928;51.062;13.752;2023-04-24T00:00:05;14.70;1.00
816;DHT22;25928;51.062;13.752;2023-04-24T00:02:32;14.70;1.00
816;DHT22;25928;51.062;13.752;2023-04-24T00:04:58;14.70;1.00
816;DHT22;25928;51.062;13.752;2023-04-24T00:07:28;14.80;1.00
816;DHT22;25928;51.062;13.752;2023-04-24T00:09:54;14.70;1.00
816;DHT22;25928;51.062;13.752;2023-04-24T00:12:20;14.80;1.00
816;DHT22;25928;51.062;13.752;2023-04-24T00:14:46;14.90;1.00
816;DHT22;25928;51.062;13.752;2023-04-24T00:17:11;14.80;1.00
816;DHT22;25928;51.062;13.752;2023-04-24T00:19:37;14.80;1.00
816;DHT22;25928;51.062;13.752;2023-04-24T00:22:03;14.80;1.00
816;DHT22;25928;51.062;13.752;2023-04-24T00:24:29;15.00;1.00
816;DHT22;25928;51.062;13.752;2023-04-24T00:26:54;15.00;1.00
816;DHT22;25928;51.062;13.752;2023-04-24T00:29:20;15.10;1.00
816;DHT22;25928;51.062;13.752;2023-04-24T00:31:46;14.90;1.00
816;DHT22;25928;51.062;13.752;2023-04-24T00:34:11;14.70;1.00
816;DHT22;25928;51.062;13.752;2023-04-24T00:36:37;14.80;1.00
816;DHT22;25928;51.062;13.752;2023-04-24T00:39:03;14.90;1.00
816;DHT22;25928;51.062;13.752;2023-04-24T00:41:29;14.80;1.00
816;DHT22;25928;51.062;13.752;2023-04-24T00:43:55;14.80;1.00
816;DHT22;25928;51.062;13.752;2023-04-24T00:46:21;14.80;1.00
816;DHT22;25928;51.062;13.752;2023-04-24T00:48:47;14.70;1.00
816;DHT22;25928;51.062;13.752;2023-04-24T00:51:13;14.70;1.00
816;DHT22;25928;51.062;13.752;2023-04-24T00:53:38;14.80;1.00
816;DHT22;25928;51.062;13.752;2023-04-24T00:56:05;14.80;1.00
816;DHT22;25928;51.062;13.752;2023-04-24T00:58:31;14.70;1.00
816;DHT22;25928;51.062;13.752;2023-04-24T01:00:57;14.80;1.00
816;DHT22;25928;51.062;13.752;2023-04-24T01:03:26;14.80;1.00
816;DHT22;25928;51.062;13.752;2023-04-24T01:05:54;14.70;1.00
816;DHT22;25928;51.062;13.752;2023-04-24T01:08:24;14.80;1.00
816;DHT22;25928;51.062;13.752;2023-04-24T01:10:52;14.80;1.00
816;DHT22;25928;51.062;13.752;2023-04-24T01:13:21;14.80;1.00
816;DHT22;25928;51.062;13.752;2023-04-24T01:15:47;14.70;1.00
816;DHT22;25928;51.062;13.752;2023-04-24T01:18:13;14.60;1.00
816;DHT22;25928;51.062;13.752;2023-04-24T01:20:43;14.60;1.00
816;DHT22;25928;51.062;13.752;2023-04-24T01:23:10;14.60;1.00
816;DHT22;25928;51.062;13.752;2023-04-24T01:25:36;14.60;1.00
816;DHT22;25928;51.062;13.752;2023-04-24T01:28:03;14.60;1.00
816;DHT22;25928;51.062;13.752;2023-04-24T01:30:29;14.60;1.00
816;DHT22;25928;51.062;13.752;2023-04-24T01:32:55;14.70;1.00
816;DHT22;25928;51.062;13.752;2023-04-24T01:35:21;14.80;1.00
816;DHT22;25928;51.062;13.752;2023-04-24T01:37:47;14.70;1.00
816;DHT22;25928;51.062;13.752;2023-04-24T01:40:13;14.70;1.00
816;DHT22;25928;51.062;13.752;2023-04-24T01:42:41;14.70;1.00
816;DHT22;25928;51.062;13.752;2023-04-24T01:45:10;14.80;1.00
816;DHT22;25928;51.062;13.752;2023-04-24T01:47:36;14.80;1.00
816;DHT22;25928;51.062;13.752;2023-04-24T01:50:02;14.90;1.00
816;DHT22;25928;51.062;13.752;2023-04-24T01:52:28;14.90;1.00
816;DHT22;25928;51.062;13.752;2023-04-24T01:54:59;14.90;1.00
816;DHT22;25928;51.062;13.752;2023-04-24T01:57:25;14.80;1.00
816;DHT22;25928;51.062;13.752;2023-04-24T01:59:51;14.80;1.00
816;DHT22;25928;51.062;13.752;2023-04-24T02:02:17;14.80;1.00
816;DHT22;25928;51.062;13.752;2023-04-24T02:04:43;14.70;1.00
816;DHT22;25928;51.062;13.752;2023-04-24T02:07:08;14.70;1.00
816;DHT22;25928;51.062;13.752;2023-04-24T02:09:34;14.70;1.00
816;DHT22;25928;51.062;13.752;2023-04-24T02:12:00;14.70;1.00
816;DHT22;25928;51.062;13.752;2023-04-24T02:14:26;14.80;1.00
816;DHT22;25928;51.062;13.752;2023-04-24T02:16:51;14.70;1.00
816;DHT22;25928;51.062;13.752;2023-04-24T02:19:17;14.60;1.00
816;DHT22;25928;51.062;13.752;2023-04-24T02:21:42;14.60;1.00
816;DHT22;25928;51.062;13.752;2023-04-24T02:24:08;14.60;1.00
816;DHT22;25928;51.062;13.752;2023-04-24T02:26:34;14.60;1.00
816;DHT22;25928;51.062;13.752;2023-04-24T02:28:59;14.60;1.00
816;DHT22;25928;51.062;13.752;2023-04-24T02:31:25;14.60;1.00
816;DHT22;25928;51.062;13.752;2023-04-24T02:33:51;14.60;1.00
816;DHT22;25928;51.062;13.752;2023-04-24T02:36:17;14.60;1.00
816;DHT22;25928;51.062;13.752;2023-04-24T02:38:42;14.70;1.00
816;DHT22;25928;51.062;13.752;2023-04-24T02:41:08;14.70;1.00
816;DHT22;25928;51.062;13.752;2023-04-24T02:43:33;14.80;1.00
816;DHT22;25928;51.062;13.752;2023-04-24T02:45:59;14.80;1.00
816;DHT22;25928;51.062;13.752;2023-04-24T02:48:25;14.70;1.00
816;DHT22;25928;51.062;13.752;2023-04-24T02:50:50;15.00;1.00
816;DHT22;25928;51.062;13.752;2023-04-24T02:53:16;14.70;1.00
816;DHT22;25928;51.062;13.752;2023-04-24T02:55:42;14.70;1.00
816;DHT22;25928;51.062;13.752;2023-04-24T02:58:08;14.70;1.00
816;DHT22;25928;51.062;13.752;2023-04-24T03:00:34;14.70;1.00
816;DHT22;25928;51.062;13.752;2023-04-24T03:02:59;14.60;1.00
816;DHT22;25928;51.062;13.752;2023-04-24T03:05:25;14.60;1.00
816;DHT22;25928;51.062;13.752;2023-04-24T03:07:52;14.50;1.00
816;DHT22;25928;51.062;13.752;2023-04-24T03:10:18;14.50;1.00
816;DHT22;25928;51.062;13.752;2023-04-24T03:12:44;14.60;1.00
816;DHT22;25928;51.062;13.752;2023-04-24T03:15:09;14.60;1.00
816;DHT22;25928;51.062;13.752;2023-04-24T03:17:35;14.60;1.00
816;DHT22;25928;51.062;13.752;2023-04-24T03:20:02;14.60;1.00
816;DHT22;25928;51.062;13.752;2023-04-24T03:22:30;14.60;1.00
816;DHT22;25928;51.062;13.752;2023-04-24T03:24:58;14.60;1.00
816;DHT22;25928;51.062;13.752;2023-04-24T03:27:23;14.50;1.00
816;DHT22;25928;51.062;13.752;2023-04-24T03:29:49;14.60;1.00
816;DHT22;25928;51.062;13.752;2023-04-24T03:32:19;14.50;1.00
816;DHT22;25928;51.062;13.752;2023-04-24T03:34:45;14.40;1.00
816;DHT22;25928;51.062;13.752;2023-04-24T03:37:10;14.40;1.00
816;DHT22;25928;51.062;13.752;2023-04-24T03:39:36;14.40;1.00
816;DHT22;25928;51.062;13.752;2023-04-24T03:42:01;14.50;1.00
816;DHT22;25928;51.062;13.752;2023-04-24T03:44:27;14.40;1.00
816;DHT22;25928;51.062;13.752;2023-04-24T03:46:53;14.40;1.00
816;DHT22;25928;51.062;13.752;2023-04-24T03:49:18;14.40;1.00
816;DHT22;25928;51.062;13.752;2023-04-24T03:51:44;14.50;1.00
816;DHT22;25928;51.062;13.752;2023-04-24T03:54:10;14.50;1.00
816;DHT22;25928;51.062;13.752;2023-04-24T03:56:35;14.50;1.00
816;DHT22;25928;51.062;13.752;2023-04-24T03:59:01;14.60;1.00
816;DHT22;25928;51.062;13.752;2023-04-24T04:01:27;14.70;1.00
816;DHT22;25928;51.062;13.752;2023-04-24T04:03:53;14.60;1.00
816;DHT22;25928;51.062;13.752;2023-04-24T04:06:19;14.60;1.00
816;DHT22;25928;51.062;13.752;2023-04-24T04:08:46;14.60;1.00
816;DHT22;25928;51.062;13.752;2023-04-24T04:11:12;14.60;1.00
816;DHT22;25928;51.062;13.752;2023-04-24T04:13:38;14.70;1.00
816;DHT22;25928;51.062;13.752;2023-04-24T04:16:03;14.70;1.00
816;DHT22;25928;51.062;13.752;2023-04-24T04:18:29;14.80;1.00
816;DHT22;25928;51.062;13.752;2023-04-24T04:20:55;14.70;1.00
816;DHT22;25928;51.062;13.752;2023-04-24T04:23:22;14.90;1.00
816;DHT22;25928;51.062;13.752;2023-04-24T04:25:48;14.80;1.00
816;DHT22;25928;51.062;13.752;2023-04-24T04:28:13;14.90;1.00
816;DHT22;25928;51.062;13.752;2023-04-24T04:30:40;15.00;1.00
816;DHT22;25928;51.062;13.752;2023-04-24T04:33:06;13.60;1.00
816;DHT22;25928;51.062;13.752;2023-04-24T04:35:33;14.90;1.00
816;DHT22;25928;51.062;13.752;2023-04-24T04:37:59;15.00;1.00
816;DHT22;25928;51.062;13.752;2023-04-24T04:40:25;15.00;1.00
816;DHT22;25928;51.062;13.752;2023-04-24T04:42:50;15.00;1.00
816;DHT22;25928;51.062;13.752;2023-04-24T04:45:18;15.10;1.00
816;DHT22;25928;51.062;13.752;2023-04-24T04:47:44;15.20;1.00
816;DHT22;25928;51.062;13.752;2023-04-24T04:50:10;15.20;1.00
816;DHT22;25928;51.062;13.752;2023-04-24T04:52:36;15.10;1.00
816;DHT22;25928;51.062;13.752;2023-04-24T04:55:02;15.10;1.00
816;DHT22;25928;51.062;13.752;2023-04-24T04:57:28;15.20;1.00
816;DHT22;25928;51.062;13.752;2023-04-24T04:59:53;15.30;1.00
816;DHT22;25928;51.062;13.752;2023-04-24T05:02:19;15.50;1.00
816;DHT22;25928;51.062;13.752;2023-04-24T05:04:45;15.70;1.00
816;DHT22;25928;51.062;13.752;2023-04-24T05:07:11;15.80;1.00
816;DHT22;25928;51.062;13.752;2023-04-24T05:09:36;15.90;1.00
816;DHT22;25928;51.062;13.752;2023-04-24T05:12:03;15.90;1.00
816;DHT22;25928;51.062;13.752;2023-04-24T05:14:28;15.90;1.00
816;DHT22;25928;51.062;13.752;2023-04-24T05:16:54;16.00;1.00
816;DHT22;25928;51.062;13.752;2023-04-24T05:19:19;16.00;1.00
816;DHT22;25928;51.062;13.752;2023-04-24T05:21:45;15.90;1.00
816;DHT22;25928;51.062;13.752;2023-04-24T05:24:11;16.00;1.00
816;DHT22;25928;51.062;13.752;2023-04-24T05:26:37;16.20;1.00
816;DHT22;25928;51.062;13.752;2023-04-24T05:29:03;16.20;1.00
816;DHT22;25928;51.062;13.752;2023-04-24T05:31:29;16.20;1.00
816;DHT22;25928;51.062;13.752;2023-04-24T05:33:55;16.20;1.00
816;DHT22;25928;51.062;13.752;2023-04-24T05:36:20;16.30;1.00
816;DHT22;25928;51.062;13.752;2023-04-24T05:38:46;16.30;1.00
816;DHT22;25928;51.062;13.752;2023-04-24T05:41:11;16.40;1.00
816;DHT22;25928;51.062;13.752;2023-04-24T05:43:37;16.40;1.00
816;DHT22;25928;51.062;13.752;2023-04-24T05:46:03;16.40;1.00
816;DHT22;25928;51.062;13.752;2023-04-24T05:48:28;16.40;1.00
816;DHT22;25928;51.062;13.752;2023-04-24T05:50:54;16.50;1.00
816;DHT22;25928;51.062;13.752;2023-04-24T05:53:19;16.60;1.00
816;DHT22;25928;51.062;13.752;2023-04-24T05:55:46;16.70;1.00
816;DHT22;25928;51.062;13.752;2023-04-24T05:58:12;16.80;1.00
816;DHT22;25928;51.062;13.752;2023-04-24T06:00:38;16.90;1.00
816;DHT22;25928;51.062;13.752;2023-04-24T06:03:05;17.00;1.00
816;DHT22;25928;51.062;13.752;2023-04-24T06:05:31;17.00;1.00
816;DHT22;25928;51.062;13.752;2023-04-24T06:07:56;17.10;1.00
816;DHT22;25928;51.062;13.752;2023-04-24T06:10:22;17.20;1.00
816;DHT22;25928;51.062;13.752;2023-04-24T06:12:48;17.20;99.90
816;DHT22;25928;51.062;13.752;2023-04-24T06:15:13;17.30;1.00
816;DHT22;25928;51.062;13.752;2023-04-24T06:17:39;17.30;99.90
816;DHT22;25928;51.062;13.752;2023-04-24T06:20:05;17.10;99.90
816;DHT22;25928;51.062;13.752;2023-04-24T06:22:32;17.60;99.90
816;DHT22;25928;51.062;13.752;2023-04-24T06:24:58;17.60;99.90
816;DHT22;25928;51.062;13.752;2023-04-24T06:27:24;17.70;99.90
816;DHT22;25928;51.062;13.752;2023-04-24T06:29:50;17.90;99.90
816;DHT22;25928;51.062;13.752;2023-04-24T06:32:23;18.00;99.90
816;DHT22;25928;51.062;13.752;2023-04-24T06:34:49;17.90;99.90
816;DHT22;25928;51.062;13.752;2023-04-24T06:37:14;18.10;99.90
816;DHT22;25928;51.062;13.752;2023-04-24T06:39:41;17.40;99.90
816;DHT22;25928;51.062;13.752;2023-04-24T06:42:07;18.30;99.90
816;DHT22;25928;51.062;13.752;2023-04-24T06:44:35;18.00;99.90
816;DHT22;25928;51.062;13.752;2023-04-24T06:47:09;17.70;99.90
816;DHT22;25928;51.062;13.752;2023-04-24T06:49:36;17.60;99.90
816;DHT22;25928;51.062;13.752;2023-04-24T06:52:02;17.70;99.90
816;DHT22;25928;51.062;13.752;2023-04-24T06:54:29;17.70;99.90
816;DHT22;25928;51.062;13.752;2023-04-24T06:56:54;17.90;99.90
816;DHT22;25928;51.062;13.752;2023-04-24T06:59:20;18.00;99.90
816;DHT22;25928;51.062;13.752;2023-04-24T07:01:46;18.10;99.90
816;DHT22;25928;51.062;13.752;2023-04-24T07:04:12;18.20;99.90
816;DHT22;25928;51.062;13.752;2023-04-24T07:06:38;18.30;99.90
816;DHT22;25928;51.062;13.752;2023-04-24T07:09:04;18.20;99.90
816;DHT22;25928;51.062;13.752;2023-04-24T07:11:30;18.50;99.90
816;DHT22;25928;51.062;13.752;2023-04-24T07:13:55;18.80;99.90
816;DHT22;25928;51.062;13.752;2023-04-24T07:16:21;19.00;99.90
816;DHT22;25928;51.062;13.752;2023-04-24T07:18:47;19.40;99.90
816;DHT22;25928;51.062;13.752;2023-04-24T07:21:13;19.50;99.90
816;DHT22;25928;51.062;13.752;2023-04-24T07:23:38;19.50;99.90
816;DHT22;25928;51.062;13.752;2023-04-24T07:26:04;19.40;99.90
816;DHT22;25928;51.062;13.752;2023-04-24T07:28:30;19.30;99.90
816;DHT22;25928;51.062;13.752;2023-04-24T07:30:57;19.30;99.90
816;DHT22;25928;51.062;13.752;2023-04-24T07:33:22;19.20;99.90
816;DHT22;25928;51.062;13.752;2023-04-24T07:35:48;19.30;99.90
816;DHT22;25928;51.062;13.752;2023-04-24T07:38:14;19.20;99.90
816;DHT22;25928;51.062;13.752;2023-04-24T07:40:40;19.10;99.90
816;DHT22;25928;51.062;13.752;2023-04-24T07:43:05;19.00;99.90
816;DHT22;25928;51.062;13.752;2023-04-24T07:45:31;19.10;99.90
816;DHT22;25928;51.062;13.752;2023-04-24T07:47:58;19.30;99.90
816;DHT22;25928;51.062;13.752;2023-04-24T07:50:24;19.40;99.90
816;DHT22;25928;51.062;13.752;2023-04-24T07:52:50;19.40;99.90
816;DHT22;25928;51.062;13.752;2023-04-24T07:55:15;19.30;99.90
816;DHT22;25928;51.062;13.752;2023-04-24T07:57:41;19.50;99.90
816;DHT22;25928;51.062;13.752;2023-04-24T08:00:07;19.70;99.90
816;DHT22;25928;51.062;13.752;2023-04-24T08:02:33;19.50;99.90
816;DHT22;25928;51.062;13.752;2023-04-24T08:04:59;19.50;99.90
816;DHT22;25928;51.062;13.752;2023-04-24T08:07:24;19.30;99.90
816;DHT22;25928;51.062;13.752;2023-04-24T08:09:50;19.30;99.90
816;DHT22;25928;51.062;13.752;2023-04-24T08:12:16;19.50;99.90
816;DHT22;25928;51.062;13.752;2023-04-24T08:14:41;19.80;99.90
816;DHT22;25928;51.062;13.752;2023-04-24T08:17:07;19.70;99.90
816;DHT22;25928;51.062;13.752;2023-04-24T08:19:32;19.80;99.90
816;DHT22;25928;51.062;13.752;2023-04-24T08:21:58;20.10;99.90
816;DHT22;25928;51.062;13.752;2023-04-24T08:24:24;20.30;99.90
816;DHT22;25928;51.062;13.752;2023-04-24T08:26:49;20.50;99.90
816;DHT22;25928;51.062;13.752;2023-04-24T08:29:16;20.60;99.90
816;DHT22;25928;51.062;13.752;2023-04-24T08:31:42;20.20;99.90
816;DHT22;25928;51.062;13.752;2023-04-24T08:34:09;20.00;99.90
816;DHT22;25928;51.062;13.752;2023-04-24T08:36:35;19.80;99.90
816;DHT22;25928;51.062;13.752;2023-04-24T08:39:01;19.80;99.90
816;DHT22;25928;51.062;13.752;2023-04-24T08:41:27;19.90;99.90
816;DHT22;25928;51.062;13.752;2023-04-24T08:43:53;19.60;99.90
816;DHT22;25928;51.062;13.752;2023-04-24T08:46:20;19.60;99.90
816;DHT22;25928;51.062;13.752;2023-04-24T08:48:48;19.70;99.90
816;DHT22;25928;51.062;13.752;2023-04-24T08:51:14;19.40;99.90
816;DHT22;25928;51.062;13.752;2023-04-24T08:53:40;19.30;99.90
816;DHT22;25928;51.062;13.752;2023-04-24T08:56:06;19.50;99.90
816;DHT22;25928;51.062;13.752;2023-04-24T08:58:32;19.40;99.90
816;DHT22;25928;51.062;13.752;2023-04-24T09:00:58;19.50;99.90
816;DHT22;25928;51.062;13.752;2023-04-24T09:03:26;19.50;99.90
816;DHT22;25928;51.062;13.752;2023-04-24T09:05:52;19.60;99.90
816;DHT22;25928;51.062;13.752;2023-04-24T09:08:20;19.70;99.90
816;DHT22;25928;51.062;13.752;2023-04-24T09:10:47;19.90;99.90
816;DHT22;25928;51.062;13.752;2023-04-24T09:13:13;20.30;99.90
816;DHT22;25928;51.062;13.752;2023-04-24T09:15:40;20.20;99.90
816;DHT22;25928;51.062;13.752;2023-04-24T09:18:06;20.10;99.90
816;DHT22;25928;51.062;13.752;2023-04-24T09:20:32;20.00;99.90
816;DHT22;25928;51.062;13.752;2023-04-24T09:22:58;19.80;99.90
816;DHT22;25928;51.062;13.752;2023-04-24T09:25:34;20.00;99.90
816;DHT22;25928;51.062;13.752;2023-04-24T09:28:04;19.60;99.90
816;DHT22;25928;51.062;13.752;2023-04-24T09:30:31;18.90;99.90
816;DHT22;25928;51.062;13.752;2023-04-24T09:33:15;18.80;99.90
816;DHT22;25928;51.062;13.752;2023-04-24T09:35:50;18.70;99.90
816;DHT22;25928;51.062;13.752;2023-04-24T09:38:17;18.60;99.90
816;DHT22;25928;51.062;13.752;2023-04-24T09:40:43;18.90;99.90
816;DHT22;25928;51.062;13.752;2023-04-24T09:43:11;19.10;99.90
816;DHT22;25928;51.062;13.752;2023-04-24T09:45:38;19.50;99.90
816;DHT22;25928;51.062;13.752;2023-04-24T09:48:05;19.20;99.90
816;DHT22;25928;51.062;13.752;2023-04-24T09:50:32;19.20;99.90
816;DHT22;25928;51.062;13.752;2023-04-24T09:53:03;19.30;99.90
816;DHT22;25928;51.062;13.752;2023-04-24T09:55:29;19.20;99.90
816;DHT22;25928;51.062;13.752;2023-04-24T09:57:59;19.00;99.90
816;DHT22;25928;51.062;13.752;2023-04-24T10:00:30;19.00;99.90
816;DHT22;25928;51.062;13.752;2023-04-24T10:03:01;18.90;99.90
816;DHT22;25928;51.062;13.752;2023-04-24T10:05:37;18.80;99.90
816;DHT22;25928;51.062;13.752;2023-04-24T10:08:10;19.00;99.90
816;DHT22;25928;51.062;13.752;2023-04-24T10:10:43;19.10;99.90
816;DHT22;25928;51.062;13.752;2023-04-24T10:13:10;19.30;99.90
816;DHT22;25928;51.062;13.752;2023-04-24T10:15:37;19.50;99.90
816;DHT22;25928;51.062;13.752;2023-04-24T10:18:04;19.40;99.90
816;DHT22;25928;51.062;13.752;2023-04-24T10:20:32;19.40;99.90
816;DHT22;25928;51.062;13.752;2023-04-24T10:22:59;19.30;99.90
816;DHT22;25928;51.062;13.752;2023-04-24T10:25:27;19.40;99.90
816;DHT22;25928;51.062;13.752;2023-04-24T10:27:54;19.60;99.90
816;DHT22;25928;51.062;13.752;2023-04-24T10:30:25;20.00;99.90
816;DHT22;25928;51.062;13.752;2023-04-24T10:32:51;20.30;99.90
816;DHT22;25928;51.062;13.752;2023-04-24T10:35:18;20.40;99.90
816;DHT22;25928;51.062;13.752;2023-04-24T10:37:56;20.40;99.90
816;DHT22;25928;51.062;13.752;2023-04-24T10:40:42;20.50;99.90
816;DHT22;25928;51.062;13.752;2023-04-24T10:43:08;19.90;99.90
816;DHT22;25928;51.062;13.752;2023-04-24T10:45:38;19.70;99.90
816;DHT22;25928;51.062;13.752;2023-04-24T10:48:05;19.60;99.90
816;DHT22;25928;51.062;13.752;2023-04-24T10:50:53;19.60;99.90
816;DHT22;25928;51.062;13.752;2023-04-24T10:53:24;19.90;99.90
816;DHT22;25928;51.062;13.752;2023-04-24T10:56:12;20.10;99.90
816;DHT22;25928;51.062;13.752;2023-04-24T10:58:41;20.40;99.90
816;DHT22;25928;51.062;13.752;2023-04-24T11:01:26;20.50;99.90
816;DHT22;25928;51.062;13.752;2023-04-24T11:03:58;20.70;99.90
816;DHT22;25928;51.062;13.752;2023-04-24T11:06:33;21.00;99.90
816;DHT22;25928;51.062;13.752;2023-04-24T11:09:08;21.00;99.90
816;DHT22;25928;51.062;13.752;2023-04-24T11:11:36;20.90;99.90
816;DHT22;25928;51.062;13.752;2023-04-24T11:14:05;20.50;99.90
816;DHT22;25928;51.062;13.752;2023-04-24T11:16:53;20.00;99.90
816;DHT22;25928;51.062;13.752;2023-04-24T11:19:22;19.40;99.90
816;DHT22;25928;51.062;13.752;2023-04-24T11:27:21;19.10;99.90
816;DHT22;25928;51.062;13.752;2023-04-24T11:35:32;19.40;99.90
816;DHT22;25928;51.062;13.752;2023-04-24T11:37:53;19.50;99.90
816;DHT22;25928;51.062;13.752;2023-04-24T11:40:21;19.80;99.90
816;DHT22;25928;51.062;13.752;2023-04-24T11:42:52;20.20;99.90
816;DHT22;25928;51.062;13.752;2023-04-24T11:45:21;20.40;99.90
816;DHT22;25928;51.062;13.752;2023-04-24T11:47:47;20.50;99.90
816;DHT22;25928;51.062;13.752;2023-04-24T11:50:15;20.70;99.90
816;DHT22;25928;51.062;13.752;2023-04-24T11:52:45;21.00;99.90
816;DHT22;25928;51.062;13.752;2023-04-24T11:57:42;21.30;99.90
816;DHT22;25928;51.062;13.752;2023-04-24T12:00:21;21.50;99.90
816;DHT22;25928;51.062;13.752;2023-04-24T12:02:48;21.30;99.90
816;DHT22;25928;51.062;13.752;2023-04-24T12:05:26;21.10;99.90
816;DHT22;25928;51.062;13.752;2023-04-24T12:07:53;20.90;99.90
816;DHT22;25928;51.062;13.752;2023-04-24T12:10:29;20.40;99.90
816;DHT22;25928;51.062;13.752;2023-04-24T12:12:56;19.90;99.90
816;DHT22;25928;51.062;13.752;2023-04-24T12:15:23;19.40;99.90
816;DHT22;25928;51.062;13.752;2023-04-24T12:17:51;19.00;99.90
816;DHT22;25928;51.062;13.752;2023-04-24T12:20:19;18.70;99.90
816;DHT22;25928;51.062;13.752;2023-04-24T12:22:54;18.60;99.90
816;DHT22;25928;51.062;13.752;2023-04-24T12:25:21;18.70;99.90
816;DHT22;25928;51.062;13.752;2023-04-24T12:28:14;18.80;99.90
816;DHT22;25928;51.062;13.752;2023-04-24T12:30:48;18.70;99.90
816;DHT22;25928;51.062;13.752;2023-04-24T12:33:21;18.60;99.90
816;DHT22;25928;51.062;13.752;2023-04-24T12:35:51;18.60;99.90
816;DHT22;25928;51.062;13.752;2023-04-24T12:38:22;18.70;99.90
816;DHT22;25928;51.062;13.752;2023-04-24T12:41:00;19.10;99.90
816;DHT22;25928;51.062;13.752;2023-04-24T12:43:26;19.50;99.90
816;DHT22;25928;51.062;13.752;2023-04-24T12:45:51;19.60;99.90
816;DHT22;25928;51.062;13.752;2023-04-24T12:48:17;19.50;99.90
816;DHT22;25928;51.062;13.752;2023-04-24T12:50:43;18.90;99.90
816;DHT22;25928;51.062;13.752;2023-04-24T12:53:09;18.70;99.90
816;DHT22;25928;51.062;13.752;2023-04-24T12:55:35;18.30;99.90
816;DHT22;25928;51.062;13.752;2023-04-24T12:58:01;18.00;99.90
816;DHT22;25928;51.062;13.752;2023-04-24T13:00:28;18.00;99.90
816;DHT22;25928;51.062;13.752;2023-04-24T13:02:53;18.30;99.90
816;DHT22;25928;51.062;13.752;2023-04-24T13:05:19;18.50;99.90
816;DHT22;25928;51.062;13.752;2023-04-24T13:07:45;18.40;99.90
816;DHT22;25928;51.062;13.752;2023-04-24T13:10:11;18.40;99.90
816;DHT22;25928;51.062;13.752;2023-04-24T13:12:36;18.80;99.90
816;DHT22;25928;51.062;13.752;2023-04-24T13:15:03;18.70;99.90
816;DHT22;25928;51.062;13.752;2023-04-24T13:17:28;18.60;99.90
816;DHT22;25928;51.062;13.752;2023-04-24T13:19:55;18.40;99.90
816;DHT22;25928;51.062;13.752;2023-04-24T13:22:20;18.70;99.90
816;DHT22;25928;51.062;13.752;2023-04-24T13:24:46;19.10;99.90
816;DHT22;25928;51.062;13.752;2023-04-24T13:27:14;19.20;99.90
816;DHT22;25928;51.062;13.752;2023-04-24T13:29:40;19.10;99.90
816;DHT22;25928;51.062;13.752;2023-04-24T13:32:06;18.90;99.90
816;DHT22;25928;51.062;13.752;2023-04-24T13:34:32;18.60;99.90
816;DHT22;25928;51.062;13.752;2023-04-24T13:36:58;18.40;99.90
816;DHT22;25928;51.062;13.752;2023-04-24T13:39:25;18.30;99.90
816;DHT22;25928;51.062;13.752;2023-04-24T13:41:51;18.40;99.90
816;DHT22;25928;51.062;13.752;2023-04-24T13:44:18;18.30;99.90
816;DHT22;25928;51.062;13.752;2023-04-24T13:46:46;18.20;99.90
816;DHT22;25928;51.062;13.752;2023-04-24T13:49:12;18.20;99.90
816;DHT22;25928;51.062;13.752;2023-04-24T13:51:38;18.10;99.90
816;DHT22;25928;51.062;13.752;2023-04-24T13:54:05;17.70;99.90
816;DHT22;25928;51.062;13.752;2023-04-24T13:56:31;17.60;99.90
816;DHT22;25928;51.062;13.752;2023-04-24T13:58:56;17.60;99.90
816;DHT22;25928;51.062;13.752;2023-04-24T14:01:22;17.80;99.90
816;DHT22;25928;51.062;13.752;2023-04-24T14:03:54;18.10;99.90
816;DHT22;25928;51.062;13.752;2023-04-24T14:06:21;18.60;99.90
816;DHT22;25928;51.062;13.752;2023-04-24T14:08:47;19.00;99.90
816;DHT22;25928;51.062;13.752;2023-04-24T14:11:13;19.40;99.90
816;DHT22;25928;51.062;13.752;2023-04-24T14:13:40;19.60;99.90
816;DHT22;25928;51.062;13.752;2023-04-24T14:16:06;19.20;99.90
816;DHT22;25928;51.062;13.752;2023-04-24T14:18:32;18.80;99.90
816;DHT22;25928;51.062;13.752;2023-04-24T14:20:58;18.50;99.90
816;DHT22;25928;51.062;13.752;2023-04-24T14:23:24;18.40;99.90
816;DHT22;25928;51.062;13.752;2023-04-24T14:25:50;18.60;99.90
816;DHT22;25928;51.062;13.752;2023-04-24T14:28:18;19.10;99.90
816;DHT22;25928;51.062;13.752;2023-04-24T14:30:44;19.60;99.90
816;DHT22;25928;51.062;13.752;2023-04-24T14:33:10;19.80;99.90
816;DHT22;25928;51.062;13.752;2023-04-24T14:35:36;19.50;99.90
816;DHT22;25928;51.062;13.752;2023-04-24T14:38:01;19.70;99.90
816;DHT22;25928;51.062;13.752;2023-04-24T14:40:27;20.30;99.90
816;DHT22;25928;51.062;13.752;2023-04-24T14:42:53;19.70;99.90
816;DHT22;25928;51.062;13.752;2023-04-24T14:45:19;19.40;99.90
816;DHT22;25928;51.062;13.752;2023-04-24T14:47:45;19.60;99.90
816;DHT22;25928;51.062;13.752;2023-04-24T14:50:10;20.40;99.90
816;DHT22;25928;51.062;13.752;2023-04-24T14:52:38;20.70;99.90
816;DHT22;25928;51.062;13.752;2023-04-24T14:55:04;20.70;99.90
816;DHT22;25928;51.062;13.752;2023-04-24T14:57:29;20.70;99.90
816;DHT22;25928;51.062;13.752;2023-04-24T14:59:56;20.20;99.90
816;DHT22;25928;51.062;13.752;2023-04-24T15:02:22;20.40;99.90
816;DHT22;25928;51.062;13.752;2023-04-24T15:04:47;20.30;99.90
816;DHT22;25928;51.062;13.752;2023-04-24T15:07:13;19.40;99.90
816;DHT22;25928;51.062;13.752;2023-04-24T15:09:39;19.50;99.90
816;DHT22;25928;51.062;13.752;2023-04-24T15:12:05;20.60;99.90
816;DHT22;25928;51.062;13.752;2023-04-24T15:14:30;21.10;99.90
816;DHT22;25928;51.062;13.752;2023-04-24T15:16:56;20.90;99.90
816;DHT22;25928;51.062;13.752;2023-04-24T15:19:21;20.30;99.90
816;DHT22;25928;51.062;13.752;2023-04-24T15:21:47;20.10;99.90
816;DHT22;25928;51.062;13.752;2023-04-24T15:24:13;19.90;99.90
816;DHT22;25928;51.062;13.752;2023-04-24T15:26:38;19.40;99.90
816;DHT22;25928;51.062;13.752;2023-04-24T15:29:04;19.00;99.90
816;DHT22;25928;51.062;13.752;2023-04-24T15:31:30;18.80;99.90
816;DHT22;25928;51.062;13.752;2023-04-24T15:33:55;18.60;99.90
816;DHT22;25928;51.062;13.752;2023-04-24T15:36:21;18.40;99.90
816;DHT22;25928;51.062;13.752;2023-04-24T15:38:47;18.00;99.90
816;DHT22;25928;51.062;13.752;2023-04-24T15:41:13;18.00;99.90
816;DHT22;25928;51.062;13.752;2023-04-24T15:43:41;17.90;99.90
816;DHT22;25928;51.062;13.752;2023-04-24T15:46:08;18.00;99.90
816;DHT22;25928;51.062;13.752;2023-04-24T15:48:34;17.90;99.90
816;DHT22;25928;51.062;13.752;2023-04-24T15:51:00;17.90;99.90
816;DHT22;25928;51.062;13.752;2023-04-24T15:53:26;18.00;99.90
816;DHT22;25928;51.062;13.752;2023-04-24T15:55:53;18.00;99.90
816;DHT22;25928;51.062;13.752;2023-04-24T15:58:22;17.80;99.90
816;DHT22;25928;51.062;13.752;2023-04-24T16:00:48;17.70;99.90
816;DHT22;25928;51.062;13.752;2023-04-24T16:03:14;17.70;99.90